sensor_id;sensor_type;location;lat;lon;timestamp;P1;durP1;ratioP1;P2;durP2;ratioP2
46334;SDS011;32051;48.882;9.210;2023-06-14T00:01:32;3.55;;;3.05;;
46334;SDS011;32051;48.882;9.210;2023-06-14T00:04:02;3.45;;;2.85;;
46334;SDS011;32051;48.882;9.210;2023-06-14T00:06:30;3.88;;;2.70;;
46334;SDS011;32051;48.882;9.210;2023-06-14T00:08:56;5.22;;;2.63;;
46334;SDS011;32051;48.882;9.210;2023-06-14T00:11:22;3.38;;;2.35;;
46334;SDS011;32051;48.882;9.210;2023-06-14T00:13:48;6.80;;;2.88;;
46334;SDS011;32051;48.882;9.210;2023-06-14T00:16:14;2.95;;;2.75;;
46334;SDS011;32051;48.882;9.210;2023-06-14T00:18:41;7.55;;;2.88;;
46334;SDS011;32051;48.882;9.210;2023-06-14T00:21:08;3.30;;;2.90;;
46334;SDS011;32051;48.882;9.210;2023-06-14T00:23:35;3.20;;;2.88;;
46334;SDS011;32051;48.882;9.210;2023-06-14T00:26:01;3.63;;;3.33;;
46334;SDS011;32051;48.882;9.210;2023-06-14T00:28:27;5.00;;;2.30;;
46334;SDS011;32051;48.882;9.210;2023-06-14T00:30:53;6.35;;;2.50;;
46334;SDS011;32051;48.882;9.210;2023-06-14T00:33:20;2.75;;;2.55;;
46334;SDS011;32051;48.882;9.210;2023-06-14T00:35:46;11.15;;;3.10;;
46334;SDS011;32051;48.882;9.210;2023-06-14T00:38:12;5.43;;;2.90;;
46334;SDS011;32051;48.882;9.210;2023-06-14T00:40:39;3.88;;;2.88;;
46334;SDS011;32051;48.882;9.210;2023-06-14T00:43:05;6.55;;;2.60;;
46334;SDS011;32051;48.882;9.210;2023-06-14T00:45:31;2.78;;;2.58;;
46334;SDS011;32051;48.882;9.210;2023-06-14T00:48:01;4.38;;;2.65;;
46334;SDS011;32051;48.882;9.210;2023-06-14T00:50:28;3.80;;;3.10;;
46334;SDS011;32051;48.882;9.210;2023-06-14T00:52:55;3.35;;;2.67;;
46334;SDS011;32051;48.882;9.210;2023-06-14T00:55:21;8.45;;;2.65;;
46334;SDS011;32051;48.882;9.210;2023-06-14T00:57:47;6.50;;;2.78;;
46334;SDS011;32051;48.882;9.210;2023-06-14T01:00:14;8.90;;;2.63;;
46334;SDS011;32051;48.882;9.210;2023-06-14T01:02:40;2.55;;;2.35;;
46334;SDS011;32051;48.882;9.210;2023-06-14T01:05:08;6.40;;;3.17;;
46334;SDS011;32051;48.882;9.210;2023-06-14T01:10:12;2.65;;;2.42;;
46334;SDS011;32051;48.882;9.210;2023-06-14T01:13:00;7.75;;;2.58;;
46334;SDS011;32051;48.882;9.210;2023-06-14T01:15:29;3.88;;;3.22;;
46334;SDS011;32051;48.882;9.210;2023-06-14T01:17:56;6.53;;;2.78;;
46334;SDS011;32051;48.882;9.210;2023-06-14T01:20:31;5.03;;;3.17;;
46334;SDS011;32051;48.882;9.210;2023-06-14T01:22:58;5.93;;;2.95;;
46334;SDS011;32051;48.882;9.210;2023-06-14T01:25:25;5.95;;;3.28;;
46334;SDS011;32051;48.882;9.210;2023-06-14T01:27:58;3.85;;;3.50;;
46334;SDS011;32051;48.882;9.210;2023-06-14T01:30:25;4.95;;;3.40;;
46334;SDS011;32051;48.882;9.210;2023-06-14T01:32:51;7.68;;;2.97;;
46334;SDS011;32051;48.882;9.210;2023-06-14T01:35:18;4.35;;;3.05;;
46334;SDS011;32051;48.882;9.210;2023-06-14T01:37:44;4.57;;;2.38;;
46334;SDS011;32051;48.882;9.210;2023-06-14T01:40:12;3.72;;;3.40;;
46334;SDS011;32051;48.882;9.210;2023-06-14T01:42:40;3.08;;;2.88;;
46334;SDS011;32051;48.882;9.210;2023-06-14T01:45:08;4.18;;;3.40;;
46334;SDS011;32051;48.882;9.210;2023-06-14T01:47:35;3.28;;;2.97;;
46334;SDS011;32051;48.882;9.210;2023-06-14T01:50:02;2.90;;;2.70;;
46334;SDS011;32051;48.882;9.210;2023-06-14T01:52:29;4.07;;;2.67;;
46334;SDS011;32051;48.882;9.210;2023-06-14T01:54:56;6.35;;;2.72;;
46334;SDS011;32051;48.882;9.210;2023-06-14T01:57:23;8.75;;;3.42;;
46334;SDS011;32051;48.882;9.210;2023-06-14T01:59:49;5.18;;;2.63;;
46334;SDS011;32051;48.882;9.210;2023-06-14T02:02:15;7.20;;;3.28;;
46334;SDS011;32051;48.882;9.210;2023-06-14T02:04:42;3.92;;;2.95;;
46334;SDS011;32051;48.882;9.210;2023-06-14T02:07:08;2.95;;;2.75;;
46334;SDS011;32051;48.882;9.210;2023-06-14T02:09:34;11.60;;;4.45;;
46334;SDS011;32051;48.882;9.210;2023-06-14T02:12:01;3.42;;;3.13;;
46334;SDS011;32051;48.882;9.210;2023-06-14T02:14:28;6.28;;;3.03;;
46334;SDS011;32051;48.882;9.210;2023-06-14T02:16:54;3.20;;;2.90;;
46334;SDS011;32051;48.882;9.210;2023-06-14T02:19:20;4.05;;;2.70;;
46334;SDS011;32051;48.882;9.210;2023-06-14T02:21:47;7.28;;;3.58;;
46334;SDS011;32051;48.882;9.210;2023-06-14T02:24:13;3.53;;;3.22;;
46334;SDS011;32051;48.882;9.210;2023-06-14T02:26:39;4.90;;;3.38;;
46334;SDS011;32051;48.882;9.210;2023-06-14T02:29:08;3.40;;;3.10;;
46334;SDS011;32051;48.882;9.210;2023-06-14T02:31:36;4.13;;;2.53;;
46334;SDS011;32051;48.882;9.210;2023-06-14T02:34:02;4.63;;;3.00;;
46334;SDS011;32051;48.882;9.210;2023-06-14T02:36:28;2.92;;;2.72;;
46334;SDS011;32051;48.882;9.210;2023-06-14T02:38:55;6.57;;;3.30;;
46334;SDS011;32051;48.882;9.210;2023-06-14T02:41:25;9.75;;;3.20;;
46334;SDS011;32051;48.882;9.210;2023-06-14T02:43:55;3.20;;;2.90;;
46334;SDS011;32051;48.882;9.210;2023-06-14T02:46:21;2.85;;;2.65;;
46334;SDS011;32051;48.882;9.210;2023-06-14T02:48:48;6.53;;;3.10;;
46334;SDS011;32051;48.882;9.210;2023-06-14T02:51:14;6.82;;;2.33;;
46334;SDS011;32051;48.882;9.210;2023-06-14T02:53:41;6.85;;;3.22;;
46334;SDS011;32051;48.882;9.210;2023-06-14T02:56:08;8.90;;;3.95;;
46334;SDS011;32051;48.882;9.210;2023-06-14T02:58:35;3.53;;;3.08;;
46334;SDS011;32051;48.882;9.210;2023-06-14T03:01:01;4.20;;;3.70;;
46334;SDS011;32051;48.882;9.210;2023-06-14T03:03:28;2.88;;;2.60;;
46334;SDS011;32051;48.882;9.210;2023-06-14T03:05:55;9.90;;;3.53;;
46334;SDS011;32051;48.882;9.210;2023-06-14T03:08:25;3.40;;;2.83;;
46334;SDS011;32051;48.882;9.210;2023-06-14T03:10:53;2.97;;;2.72;;
46334;SDS011;32051;48.882;9.210;2023-06-14T03:13:21;2.88;;;2.67;;
46334;SDS011;32051;48.882;9.210;2023-06-14T03:15:49;4.55;;;2.42;;
46334;SDS011;32051;48.882;9.210;2023-06-14T03:18:16;6.80;;;3.00;;
46334;SDS011;32051;48.882;9.210;2023-06-14T03:20:43;3.83;;;2.70;;
46334;SDS011;32051;48.882;9.210;2023-06-14T03:23:11;4.53;;;2.67;;
46334;SDS011;32051;48.882;9.210;2023-06-14T03:25:38;3.58;;;3.28;;
46334;SDS011;32051;48.882;9.210;2023-06-14T03:28:08;5.75;;;3.05;;
46334;SDS011;32051;48.882;9.210;2023-06-14T03:30:34;6.57;;;3.15;;
46334;SDS011;32051;48.882;9.210;2023-06-14T03:33:01;3.35;;;2.60;;
46334;SDS011;32051;48.882;9.210;2023-06-14T03:35:28;4.60;;;3.28;;
46334;SDS011;32051;48.882;9.210;2023-06-14T03:37:54;3.00;;;2.80;;
46334;SDS011;32051;48.882;9.210;2023-06-14T03:40:21;5.28;;;3.53;;
46334;SDS011;32051;48.882;9.210;2023-06-14T03:42:51;3.35;;;3.15;;
46334;SDS011;32051;48.882;9.210;2023-06-14T03:45:18;5.65;;;2.60;;
46334;SDS011;32051;48.882;9.210;2023-06-14T03:47:44;3.38;;;3.10;;
46334;SDS011;32051;48.882;9.210;2023-06-14T03:50:10;6.65;;;3.20;;
46334;SDS011;32051;48.882;9.210;2023-06-14T03:52:37;5.03;;;3.15;;
46334;SDS011;32051;48.882;9.210;2023-06-14T03:55:04;2.97;;;2.78;;
46334;SDS011;32051;48.882;9.210;2023-06-14T03:57:32;4.43;;;2.67;;
46334;SDS011;32051;48.882;9.210;2023-06-14T03:59:58;7.65;;;3.08;;
46334;SDS011;32051;48.882;9.210;2023-06-14T04:02:25;5.43;;;3.25;;
46334;SDS011;32051;48.882;9.210;2023-06-14T04:04:54;4.43;;;4.05;;
46334;SDS011;32051;48.882;9.210;2023-06-14T04:07:20;5.45;;;3.38;;
46334;SDS011;32051;48.882;9.210;2023-06-14T04:09:46;4.18;;;2.97;;
46334;SDS011;32051;48.882;9.210;2023-06-14T04:12:12;3.28;;;3.08;;
46334;SDS011;32051;48.882;9.210;2023-06-14T04:14:39;4.05;;;2.67;;
46334;SDS011;32051;48.882;9.210;2023-06-14T04:17:08;6.90;;;3.92;;
46334;SDS011;32051;48.882;9.210;2023-06-14T04:19:36;22.23;;;3.67;;
46334;SDS011;32051;48.882;9.210;2023-06-14T04:22:02;3.63;;;3.33;;
46334;SDS011;32051;48.882;9.210;2023-06-14T04:24:31;3.00;;;2.80;;
46334;SDS011;32051;48.882;9.210;2023-06-14T04:27:00;3.90;;;3.60;;
46334;SDS011;32051;48.882;9.210;2023-06-14T04:29:27;6.55;;;3.70;;
46334;SDS011;32051;48.882;9.210;2023-06-14T04:31:59;9.70;;;3.33;;
46334;SDS011;32051;48.882;9.210;2023-06-14T04:34:26;3.83;;;3.40;;
46334;SDS011;32051;48.882;9.210;2023-06-14T04:36:58;3.92;;;3.58;;
46334;SDS011;32051;48.882;9.210;2023-06-14T04:39:37;6.47;;;3.13;;
46334;SDS011;32051;48.882;9.210;2023-06-14T04:42:04;5.63;;;3.35;;
46334;SDS011;32051;48.882;9.210;2023-06-14T04:44:33;3.92;;;3.40;;
46334;SDS011;32051;48.882;9.210;2023-06-14T04:47:02;5.80;;;4.30;;
46334;SDS011;32051;48.882;9.210;2023-06-14T04:49:28;3.20;;;2.92;;
46334;SDS011;32051;48.882;9.210;2023-06-14T04:51:57;3.33;;;2.88;;
46334;SDS011;32051;48.882;9.210;2023-06-14T04:54:27;5.05;;;2.85;;
46334;SDS011;32051;48.882;9.210;2023-06-14T04:56:56;3.55;;;3.15;;
46334;SDS011;32051;48.882;9.210;2023-06-14T04:59:25;4.00;;;2.97;;
46334;SDS011;32051;48.882;9.210;2023-06-14T05:01:51;7.80;;;4.43;;
46334;SDS011;32051;48.882;9.210;2023-06-14T05:04:18;4.88;;;3.55;;
46334;SDS011;32051;48.882;9.210;2023-06-14T05:06:46;7.70;;;3.40;;
46334;SDS011;32051;48.882;9.210;2023-06-14T05:09:15;7.45;;;3.35;;
46334;SDS011;32051;48.882;9.210;2023-06-14T05:11:43;11.63;;;3.42;;
46334;SDS011;32051;48.882;9.210;2023-06-14T05:14:11;4.10;;;3.08;;
46334;SDS011;32051;48.882;9.210;2023-06-14T05:16:38;4.40;;;3.88;;
46334;SDS011;32051;48.882;9.210;2023-06-14T05:19:04;7.63;;;4.03;;
46334;SDS011;32051;48.882;9.210;2023-06-14T05:21:30;14.07;;;3.75;;
46334;SDS011;32051;48.882;9.210;2023-06-14T05:24:00;6.65;;;3.53;;
46334;SDS011;32051;48.882;9.210;2023-06-14T05:26:26;3.50;;;3.17;;
46334;SDS011;32051;48.882;9.210;2023-06-14T05:28:56;4.18;;;2.90;;
46334;SDS011;32051;48.882;9.210;2023-06-14T05:31:22;3.22;;;2.63;;
46334;SDS011;32051;48.882;9.210;2023-06-14T05:33:49;3.70;;;3.20;;
46334;SDS011;32051;48.882;9.210;2023-06-14T05:36:15;2.58;;;2.42;;
46334;SDS011;32051;48.882;9.210;2023-06-14T05:38:41;2.97;;;2.60;;
46334;SDS011;32051;48.882;9.210;2023-06-14T05:41:07;3.65;;;3.35;;
46334;SDS011;32051;48.882;9.210;2023-06-14T05:43:33;3.15;;;2.85;;
46334;SDS011;32051;48.882;9.210;2023-06-14T05:45:59;3.22;;;2.97;;
46334;SDS011;32051;48.882;9.210;2023-06-14T05:48:25;15.90;;;3.53;;
46334;SDS011;32051;48.882;9.210;2023-06-14T05:50:52;6.07;;;3.33;;
46334;SDS011;32051;48.882;9.210;2023-06-14T05:53:18;3.65;;;2.60;;
46334;SDS011;32051;48.882;9.210;2023-06-14T05:55:44;2.58;;;2.38;;
46334;SDS011;32051;48.882;9.210;2023-06-14T05:58:10;11.95;;;2.97;;
46334;SDS011;32051;48.882;9.210;2023-06-14T06:00:38;8.65;;;2.30;;
46334;SDS011;32051;48.882;9.210;2023-06-14T06:03:05;6.57;;;3.05;;
46334;SDS011;32051;48.882;9.210;2023-06-14T06:05:33;6.18;;;3.92;;
46334;SDS011;32051;48.882;9.210;2023-06-14T06:07:59;5.03;;;2.72;;
46334;SDS011;32051;48.882;9.210;2023-06-14T06:10:25;6.88;;;3.53;;
46334;SDS011;32051;48.882;9.210;2023-06-14T06:12:51;6.85;;;3.40;;
46334;SDS011;32051;48.882;9.210;2023-06-14T06:15:19;6.00;;;2.75;;
46334;SDS011;32051;48.882;9.210;2023-06-14T06:17:45;8.13;;;3.17;;
46334;SDS011;32051;48.882;9.210;2023-06-14T06:20:11;3.75;;;2.97;;
46334;SDS011;32051;48.882;9.210;2023-06-14T06:22:38;5.38;;;2.92;;
46334;SDS011;32051;48.882;9.210;2023-06-14T06:25:04;2.88;;;2.65;;
46334;SDS011;32051;48.882;9.210;2023-06-14T06:27:31;9.95;;;3.10;;
46334;SDS011;32051;48.882;9.210;2023-06-14T06:29:57;12.13;;;3.13;;
46334;SDS011;32051;48.882;9.210;2023-06-14T06:32:23;3.90;;;3.38;;
46334;SDS011;32051;48.882;9.210;2023-06-14T06:34:50;11.55;;;3.55;;
46334;SDS011;32051;48.882;9.210;2023-06-14T06:37:17;11.57;;;2.80;;
46334;SDS011;32051;48.882;9.210;2023-06-14T06:39:43;5.25;;;3.08;;
46334;SDS011;32051;48.882;9.210;2023-06-14T06:42:09;6.18;;;2.80;;
46334;SDS011;32051;48.882;9.210;2023-06-14T06:44:36;12.90;;;3.30;;
46334;SDS011;32051;48.882;9.210;2023-06-14T06:47:02;8.05;;;2.75;;
46334;SDS011;32051;48.882;9.210;2023-06-14T06:49:28;10.25;;;3.40;;
46334;SDS011;32051;48.882;9.210;2023-06-14T06:52:01;6.22;;;4.57;;
46334;SDS011;32051;48.882;9.210;2023-06-14T06:54:28;8.35;;;2.88;;
46334;SDS011;32051;48.882;9.210;2023-06-14T06:56:54;9.02;;;2.85;;
46334;SDS011;32051;48.882;9.210;2023-06-14T06:59:20;19.25;;;3.17;;
46334;SDS011;32051;48.882;9.210;2023-06-14T07:01:46;5.53;;;3.90;;
46334;SDS011;32051;48.882;9.210;2023-06-14T07:04:12;4.85;;;3.25;;
46334;SDS011;32051;48.882;9.210;2023-06-14T07:06:39;6.75;;;3.38;;
46334;SDS011;32051;48.882;9.210;2023-06-14T07:09:05;5.40;;;3.15;;
46334;SDS011;32051;48.882;9.210;2023-06-14T07:11:33;9.57;;;3.00;;
46334;SDS011;32051;48.882;9.210;2023-06-14T07:13:59;9.93;;;3.10;;
46334;SDS011;32051;48.882;9.210;2023-06-14T07:16:25;9.05;;;2.95;;
46334;SDS011;32051;48.882;9.210;2023-06-14T07:18:51;20.88;;;3.30;;
46334;SDS011;32051;48.882;9.210;2023-06-14T07:21:18;9.38;;;3.78;;
46334;SDS011;32051;48.882;9.210;2023-06-14T07:23:44;6.03;;;2.85;;
46334;SDS011;32051;48.882;9.210;2023-06-14T07:26:10;10.35;;;3.40;;
46334;SDS011;32051;48.882;9.210;2023-06-14T07:28:36;9.30;;;3.28;;
46334;SDS011;32051;48.882;9.210;2023-06-14T07:31:02;13.10;;;2.97;;
46334;SDS011;32051;48.882;9.210;2023-06-14T07:33:28;11.82;;;3.17;;
46334;SDS011;32051;48.882;9.210;2023-06-14T07:35:54;4.72;;;2.40;;
46334;SDS011;32051;48.882;9.210;2023-06-14T07:38:20;11.40;;;3.20;;
46334;SDS011;32051;48.882;9.210;2023-06-14T07:40:46;5.70;;;3.05;;
46334;SDS011;32051;48.882;9.210;2023-06-14T07:43:12;16.65;;;3.60;;
46334;SDS011;32051;48.882;9.210;2023-06-14T07:45:38;14.73;;;3.53;;
46334;SDS011;32051;48.882;9.210;2023-06-14T07:48:05;9.27;;;2.80;;
46334;SDS011;32051;48.882;9.210;2023-06-14T07:50:31;3.03;;;2.83;;
46334;SDS011;32051;48.882;9.210;2023-06-14T07:52:58;7.95;;;3.75;;
46334;SDS011;32051;48.882;9.210;2023-06-14T07:55:24;8.77;;;2.72;;
46334;SDS011;32051;48.882;9.210;2023-06-14T07:57:50;10.40;;;2.78;;
46334;SDS011;32051;48.882;9.210;2023-06-14T08:00:17;7.28;;;2.85;;
46334;SDS011;32051;48.882;9.210;2023-06-14T08:02:44;6.25;;;2.63;;
46334;SDS011;32051;48.882;9.210;2023-06-14T08:05:11;8.77;;;3.17;;
46334;SDS011;32051;48.882;9.210;2023-06-14T08:07:37;8.00;;;2.85;;
46334;SDS011;32051;48.882;9.210;2023-06-14T08:10:07;2.72;;;2.53;;
46334;SDS011;32051;48.882;9.210;2023-06-14T08:12:33;14.05;;;2.65;;
46334;SDS011;32051;48.882;9.210;2023-06-14T08:15:00;3.60;;;3.25;;
46334;SDS011;32051;48.882;9.210;2023-06-14T08:17:26;3.85;;;3.55;;
46334;SDS011;32051;48.882;9.210;2023-06-14T08:19:52;12.60;;;3.40;;
46334;SDS011;32051;48.882;9.210;2023-06-14T08:22:22;4.25;;;2.83;;
46334;SDS011;32051;48.882;9.210;2023-06-14T08:24:49;20.83;;;4.50;;
46334;SDS011;32051;48.882;9.210;2023-06-14T08:27:16;15.25;;;3.67;;
46334;SDS011;32051;48.882;9.210;2023-06-14T08:29:42;5.50;;;2.75;;
46334;SDS011;32051;48.882;9.210;2023-06-14T08:32:08;4.40;;;2.90;;
46334;SDS011;32051;48.882;9.210;2023-06-14T08:34:35;7.40;;;2.85;;
46334;SDS011;32051;48.882;9.210;2023-06-14T08:37:01;5.15;;;2.50;;
46334;SDS011;32051;48.882;9.210;2023-06-14T08:39:27;9.95;;;3.45;;
46334;SDS011;32051;48.882;9.210;2023-06-14T08:41:53;5.07;;;3.30;;
46334;SDS011;32051;48.882;9.210;2023-06-14T08:44:20;10.95;;;3.15;;
46334;SDS011;32051;48.882;9.210;2023-06-14T08:46:47;6.68;;;2.75;;
46334;SDS011;32051;48.882;9.210;2023-06-14T08:49:13;4.15;;;3.20;;
46334;SDS011;32051;48.882;9.210;2023-06-14T08:51:40;6.20;;;3.13;;
46334;SDS011;32051;48.882;9.210;2023-06-14T08:54:08;5.80;;;3.40;;
46334;SDS011;32051;48.882;9.210;2023-06-14T08:56:35;10.70;;;3.13;;
46334;SDS011;32051;48.882;9.210;2023-06-14T08:59:03;7.22;;;3.13;;
46334;SDS011;32051;48.882;9.210;2023-06-14T09:01:32;13.73;;;3.53;;
46334;SDS011;32051;48.882;9.210;2023-06-14T09:03:59;4.60;;;2.80;;
46334;SDS011;32051;48.882;9.210;2023-06-14T09:06:25;3.35;;;3.03;;
46334;SDS011;32051;48.882;9.210;2023-06-14T09:08:53;12.85;;;3.13;;
46334;SDS011;32051;48.882;9.210;2023-06-14T09:11:19;9.32;;;2.53;;
46334;SDS011;32051;48.882;9.210;2023-06-14T09:13:46;13.80;;;2.67;;
46334;SDS011;32051;48.882;9.210;2023-06-14T09:16:12;7.82;;;2.55;;
46334;SDS011;32051;48.882;9.210;2023-06-14T09:18:39;5.80;;;2.70;;
46334;SDS011;32051;48.882;9.210;2023-06-14T09:21:06;12.25;;;3.17;;
46334;SDS011;32051;48.882;9.210;2023-06-14T09:23:36;2.65;;;2.45;;
46334;SDS011;32051;48.882;9.210;2023-06-14T09:26:10;3.70;;;3.33;;
46334;SDS011;32051;48.882;9.210;2023-06-14T09:28:36;7.25;;;3.35;;
46334;SDS011;32051;48.882;9.210;2023-06-14T09:31:02;7.15;;;2.55;;
46334;SDS011;32051;48.882;9.210;2023-06-14T09:33:28;2.70;;;2.50;;
46334;SDS011;32051;48.882;9.210;2023-06-14T09:35:54;3.20;;;2.90;;
46334;SDS011;32051;48.882;9.210;2023-06-14T09:38:21;4.20;;;2.42;;
46334;SDS011;32051;48.882;9.210;2023-06-14T09:40:47;3.92;;;2.58;;
46334;SDS011;32051;48.882;9.210;2023-06-14T09:43:13;3.97;;;2.85;;
46334;SDS011;32051;48.882;9.210;2023-06-14T09:45:39;5.60;;;2.03;;
46334;SDS011;32051;48.882;9.210;2023-06-14T09:48:06;10.05;;;2.88;;
46334;SDS011;32051;48.882;9.210;2023-06-14T09:50:35;7.13;;;2.22;;
46334;SDS011;32051;48.882;9.210;2023-06-14T09:53:07;8.73;;;3.00;;
46334;SDS011;32051;48.882;9.210;2023-06-14T09:55:36;7.70;;;2.78;;
46334;SDS011;32051;48.882;9.210;2023-06-14T09:58:04;18.30;;;3.10;;
46334;SDS011;32051;48.882;9.210;2023-06-14T10:00:31;11.32;;;3.10;;
46334;SDS011;32051;48.882;9.210;2023-06-14T10:03:00;2.33;;;2.13;;
46334;SDS011;32051;48.882;9.210;2023-06-14T10:05:27;6.07;;;1.80;;
46334;SDS011;32051;48.882;9.210;2023-06-14T10:08:00;4.40;;;2.50;;
46334;SDS011;32051;48.882;9.210;2023-06-14T10:10:27;6.50;;;2.58;;
46334;SDS011;32051;48.882;9.210;2023-06-14T10:12:53;7.65;;;2.28;;
46334;SDS011;32051;48.882;9.210;2023-06-14T10:15:26;6.85;;;2.97;;
46334;SDS011;32051;48.882;9.210;2023-06-14T10:17:58;9.48;;;3.10;;
46334;SDS011;32051;48.882;9.210;2023-06-14T10:20:30;9.52;;;2.30;;
46334;SDS011;32051;48.882;9.210;2023-06-14T10:23:03;2.50;;;2.30;;
46334;SDS011;32051;48.882;9.210;2023-06-14T10:25:33;4.60;;;2.53;;
46334;SDS011;32051;48.882;9.210;2023-06-14T10:30:37;5.25;;;2.45;;
46334;SDS011;32051;48.882;9.210;2023-06-14T10:33:04;3.63;;;2.15;;
46334;SDS011;32051;48.882;9.210;2023-06-14T10:35:31;6.18;;;1.95;;
46334;SDS011;32051;48.882;9.210;2023-06-14T10:38:07;6.65;;;2.13;;
46334;SDS011;32051;48.882;9.210;2023-06-14T10:40:34;3.72;;;2.53;;
46334;SDS011;32051;48.882;9.210;2023-06-14T10:43:00;3.78;;;2.60;;
46334;SDS011;32051;48.882;9.210;2023-06-14T10:45:26;11.65;;;3.40;;
46334;SDS011;32051;48.882;9.210;2023-06-14T10:47:52;11.65;;;5.30;;
46334;SDS011;32051;48.882;9.210;2023-06-14T10:50:22;6.90;;;4.18;;
46334;SDS011;32051;48.882;9.210;2023-06-14T10:52:53;5.05;;;3.40;;
46334;SDS011;32051;48.882;9.210;2023-06-14T10:55:19;3.17;;;2.88;;
46334;SDS011;32051;48.882;9.210;2023-06-14T10:57:48;3.58;;;3.28;;
46334;SDS011;32051;48.882;9.210;2023-06-14T11:00:24;5.30;;;3.45;;
46334;SDS011;32051;48.882;9.210;2023-06-14T11:05:52;17.02;;;3.92;;
46334;SDS011;32051;48.882;9.210;2023-06-14T11:08:24;4.50;;;2.53;;
46334;SDS011;32051;48.882;9.210;2023-06-14T11:10:54;3.92;;;2.13;;
46334;SDS011;32051;48.882;9.210;2023-06-14T11:13:20;2.80;;;1.77;;
46334;SDS011;32051;48.882;9.210;2023-06-14T11:15:50;5.68;;;1.90;;
46334;SDS011;32051;48.882;9.210;2023-06-14T11:18:18;2.15;;;2.00;;
46334;SDS011;32051;48.882;9.210;2023-06-14T11:20:46;2.08;;;1.88;;
46334;SDS011;32051;48.882;9.210;2023-06-14T11:23:12;10.77;;;3.75;;
46334;SDS011;32051;48.882;9.210;2023-06-14T11:25:38;7.22;;;3.17;;
46334;SDS011;32051;48.882;9.210;2023-06-14T11:28:05;7.63;;;2.72;;
46334;SDS011;32051;48.882;9.210;2023-06-14T11:30:31;3.80;;;1.80;;
46334;SDS011;32051;48.882;9.210;2023-06-14T11:32:57;3.90;;;2.13;;
46334;SDS011;32051;48.882;9.210;2023-06-14T11:35:23;2.35;;;2.13;;
46334;SDS011;32051;48.882;9.210;2023-06-14T11:37:56;2.10;;;1.90;;
46334;SDS011;32051;48.882;9.210;2023-06-14T11:40:26;14.35;;;2.45;;
46334;SDS011;32051;48.882;9.210;2023-06-14T11:42:59;2.70;;;1.92;;
46334;SDS011;32051;48.882;9.210;2023-06-14T11:45:25;2.38;;;1.65;;
46334;SDS011;32051;48.882;9.210;2023-06-14T11:47:53;3.03;;;1.85;;
46334;SDS011;32051;48.882;9.210;2023-06-14T11:50:20;1.80;;;1.70;;
46334;SDS011;32051;48.882;9.210;2023-06-14T11:52:51;2.75;;;2.47;;
46334;SDS011;32051;48.882;9.210;2023-06-14T11:55:18;4.57;;;2.58;;
46334;SDS011;32051;48.882;9.210;2023-06-14T11:57:46;3.25;;;1.73;;
46334;SDS011;32051;48.882;9.210;2023-06-14T12:00:12;10.63;;;1.90;;
46334;SDS011;32051;48.882;9.210;2023-06-14T12:02:40;3.90;;;2.30;;
46334;SDS011;32051;48.882;9.210;2023-06-14T12:05:06;8.38;;;2.33;;
46334;SDS011;32051;48.882;9.210;2023-06-14T12:07:37;3.60;;;2.10;;
46334;SDS011;32051;48.882;9.210;2023-06-14T12:10:05;8.30;;;2.40;;
46334;SDS011;32051;48.882;9.210;2023-06-14T12:12:36;3.28;;;1.90;;
46334;SDS011;32051;48.882;9.210;2023-06-14T12:15:04;2.22;;;2.03;;
46334;SDS011;32051;48.882;9.210;2023-06-14T12:17:34;5.10;;;1.90;;
46334;SDS011;32051;48.882;9.210;2023-06-14T12:22:36;1.85;;;1.75;;
46334;SDS011;32051;48.882;9.210;2023-06-14T12:25:02;3.10;;;2.20;;
46334;SDS011;32051;48.882;9.210;2023-06-14T12:27:29;2.55;;;1.67;;
46334;SDS011;32051;48.882;9.210;2023-06-14T12:29:59;3.13;;;1.80;;
46334;SDS011;32051;48.882;9.210;2023-06-14T12:32:26;4.97;;;2.17;;
46334;SDS011;32051;48.882;9.210;2023-06-14T12:34:52;1.58;;;1.48;;
46334;SDS011;32051;48.882;9.210;2023-06-14T12:37:17;3.78;;;1.55;;
46334;SDS011;32051;48.882;9.210;2023-06-14T12:39:43;7.47;;;1.83;;
46334;SDS011;32051;48.882;9.210;2023-06-14T12:42:09;6.45;;;2.65;;
46334;SDS011;32051;48.882;9.210;2023-06-14T12:44:35;2.13;;;1.70;;
46334;SDS011;32051;48.882;9.210;2023-06-14T12:47:05;2.30;;;1.60;;
46334;SDS011;32051;48.882;9.210;2023-06-14T12:49:32;2.50;;;2.30;;
46334;SDS011;32051;48.882;9.210;2023-06-14T12:51:58;6.90;;;1.98;;
46334;SDS011;32051;48.882;9.210;2023-06-14T12:54:24;4.65;;;1.70;;
46334;SDS011;32051;48.882;9.210;2023-06-14T12:56:51;2.78;;;2.55;;
46334;SDS011;32051;48.882;9.210;2023-06-14T12:59:18;3.75;;;1.90;;
46334;SDS011;32051;48.882;9.210;2023-06-14T13:01:43;3.97;;;2.25;;
46334;SDS011;32051;48.882;9.210;2023-06-14T13:04:10;4.13;;;1.60;;
46334;SDS011;32051;48.882;9.210;2023-06-14T13:06:36;2.00;;;1.90;;
46334;SDS011;32051;48.882;9.210;2023-06-14T13:09:01;2.83;;;1.85;;
46334;SDS011;32051;48.882;9.210;2023-06-14T13:11:29;5.57;;;1.35;;
46334;SDS011;32051;48.882;9.210;2023-06-14T13:13:56;2.60;;;1.80;;
46334;SDS011;32051;48.882;9.210;2023-06-14T13:16:22;4.95;;;1.52;;
46334;SDS011;32051;48.882;9.210;2023-06-14T13:18:48;6.38;;;1.80;;
46334;SDS011;32051;48.882;9.210;2023-06-14T13:21:14;5.10;;;1.75;;
46334;SDS011;32051;48.882;9.210;2023-06-14T13:23:40;8.82;;;3.35;;
46334;SDS011;32051;48.882;9.210;2023-06-14T13:26:05;6.63;;;1.75;;
46334;SDS011;32051;48.882;9.210;2023-06-14T13:28:31;4.95;;;1.98;;
46334;SDS011;32051;48.882;9.210;2023-06-14T13:30:57;8.65;;;2.00;;
46334;SDS011;32051;48.882;9.210;2023-06-14T13:33:23;1.75;;;1.65;;
46334;SDS011;32051;48.882;9.210;2023-06-14T13:35:49;4.43;;;2.00;;
46334;SDS011;32051;48.882;9.210;2023-06-14T13:38:17;7.43;;;2.05;;
46334;SDS011;32051;48.882;9.210;2023-06-14T13:40:43;6.00;;;1.75;;
46334;SDS011;32051;48.882;9.210;2023-06-14T13:43:09;2.47;;;1.98;;
46334;SDS011;32051;48.882;9.210;2023-06-14T13:45:35;7.82;;;2.10;;
46334;SDS011;32051;48.882;9.210;2023-06-14T13:48:01;3.95;;;2.75;;
46334;SDS011;32051;48.882;9.210;2023-06-14T13:50:27;3.95;;;2.05;;
46334;SDS011;32051;48.882;9.210;2023-06-14T13:52:53;1.92;;;1.80;;
46334;SDS011;32051;48.882;9.210;2023-06-14T13:55:19;3.28;;;2.05;;
46334;SDS011;32051;48.882;9.210;2023-06-14T13:57:46;2.70;;;1.70;;
46334;SDS011;32051;48.882;9.210;2023-06-14T14:00:12;8.55;;;2.22;;
46334;SDS011;32051;48.882;9.210;2023-06-14T14:02:40;6.53;;;1.75;;
46334;SDS011;32051;48.882;9.210;2023-06-14T14:05:05;2.33;;;1.77;;
46334;SDS011;32051;48.882;9.210;2023-06-14T14:07:31;9.27;;;1.80;;
46334;SDS011;32051;48.882;9.210;2023-06-14T14:09:57;10.60;;;2.90;;
46334;SDS011;32051;48.882;9.210;2023-06-14T14:12:23;2.17;;;1.70;;
46334;SDS011;32051;48.882;9.210;2023-06-14T14:14:50;11.63;;;2.15;;
46334;SDS011;32051;48.882;9.210;2023-06-14T14:17:16;8.80;;;1.85;;
46334;SDS011;32051;48.882;9.210;2023-06-14T14:19:42;12.25;;;2.45;;
46334;SDS011;32051;48.882;9.210;2023-06-14T14:22:08;5.18;;;1.83;;
46334;SDS011;32051;48.882;9.210;2023-06-14T14:24:34;10.60;;;2.20;;
46334;SDS011;32051;48.882;9.210;2023-06-14T14:27:00;2.80;;;1.80;;
46334;SDS011;32051;48.882;9.210;2023-06-14T14:29:25;8.38;;;2.15;;
46334;SDS011;32051;48.882;9.210;2023-06-14T14:31:54;6.95;;;2.05;;
46334;SDS011;32051;48.882;9.210;2023-06-14T14:34:21;3.42;;;2.10;;
46334;SDS011;32051;48.882;9.210;2023-06-14T14:36:47;3.92;;;1.80;;
46334;SDS011;32051;48.882;9.210;2023-06-14T14:39:13;4.28;;;2.15;;
46334;SDS011;32051;48.882;9.210;2023-06-14T14:41:40;9.43;;;2.00;;
46334;SDS011;32051;48.882;9.210;2023-06-14T14:44:06;8.27;;;2.30;;
46334;SDS011;32051;48.882;9.210;2023-06-14T14:46:32;4.45;;;1.58;;
46334;SDS011;32051;48.882;9.210;2023-06-14T14:49:00;4.95;;;1.65;;
46334;SDS011;32051;48.882;9.210;2023-06-14T14:51:26;8.00;;;1.83;;
46334;SDS011;32051;48.882;9.210;2023-06-14T14:53:52;2.40;;;1.90;;
46334;SDS011;32051;48.882;9.210;2023-06-14T14:56:17;5.28;;;1.65;;